createdAt,value
2018-02-20T00:01:05.348Z,78.67
2018-02-20T00:03:32.985Z,78.42
2018-02-20T00:06:00.596Z,78.36
2018-02-20T00:08:28.272Z,78.11
2018-02-20T00:10:55.891Z,77.98
2018-02-20T00:13:24.544Z,77.86
2018-02-20T00:15:52.198Z,77.74
2018-02-20T00:18:20.661Z,77.44
2018-02-20T00:20:49.134Z,77.39
2018-02-20T00:23:16.784Z,77.25
2018-02-20T00:25:44.427Z,77.41
2018-02-20T00:28:12.101Z,77.57
2018-02-20T00:30:39.739Z,77.62
2018-02-20T00:33:07.411Z,77.53
2018-02-20T00:35:35.059Z,77.45
2018-02-20T00:38:03.583Z,77.36
2018-02-20T00:40:31.706Z,77.54
2018-02-20T00:42:59.345Z,77.69
2018-02-20T00:45:26.952Z,77.72
2018-02-20T00:47:54.613Z,77.50
2018-02-20T00:50:22.221Z,77.52
2018-02-20T00:52:50.123Z,77.57
2018-02-20T00:55:18.563Z,77.95
2018-02-20T00:57:46.231Z,78.28
2018-02-20T01:00:14.796Z,78.27
2018-02-20T01:02:42.438Z,78.43
2018-02-20T01:05:10.054Z,78.55
2018-02-20T01:07:38.945Z,79.15
2018-02-20T01:10:06.572Z,79.70
2018-02-20T01:12:34.584Z,79.87
2018-02-20T01:15:02.192Z,79.61
2018-02-20T01:17:30.381Z,79.41
2018-02-20T01:19:58.012Z,79.30
2018-02-20T01:22:26.396Z,79.39
2018-02-20T01:24:54.007Z,79.36
2018-02-20T01:27:21.645Z,79.56
2018-02-20T01:29:50.040Z,79.59
2018-02-20T01:32:17.932Z,79.47
2018-02-20T01:34:45.540Z,79.37
2018-02-20T01:37:14.095Z,79.44
2018-02-20T01:39:41.760Z,79.50
2018-02-20T01:42:09.634Z,79.42
2018-02-20T01:44:37.607Z,79.04
2018-02-20T01:47:05.276Z,79.20
2018-02-20T01:49:32.965Z,79.41
2018-02-20T01:52:01.405Z,79.42
2018-02-20T01:54:30.494Z,79.35
2018-02-20T01:56:58.979Z,79.32
2018-02-20T01:59:26.741Z,79.42
2018-02-20T02:01:54.384Z,79.33
2018-02-20T02:04:22.231Z,79.25
2018-02-20T02:06:50.040Z,79.17
2018-02-20T02:09:17.676Z,78.87
2018-02-20T02:11:45.491Z,78.81
2018-02-20T02:14:13.149Z,78.64
2018-02-20T02:16:40.851Z,78.76
2018-02-20T02:19:09.416Z,78.52
2018-02-20T02:21:37.113Z,78.40
2018-02-20T02:24:04.867Z,78.52
2018-02-20T02:26:32.588Z,78.89
2018-02-20T02:29:00.561Z,79.06
2018-02-20T02:31:29.290Z,79.83
2018-02-20T02:33:57.855Z,80.43
2018-02-20T02:36:26.443Z,80.80
2018-02-20T02:38:54.852Z,80.99
2018-02-20T02:41:23.459Z,81.12
2018-02-20T02:43:51.151Z,80.72
2018-02-20T02:46:18.837Z,80.63
2018-02-20T02:48:46.592Z,80.93
2018-02-20T02:51:14.783Z,81.18
2018-02-20T02:53:42.495Z,81.12
2018-02-20T02:56:10.102Z,81.12
2018-02-20T02:58:38.628Z,81.51
2018-02-20T03:01:06.346Z,81.83
2018-02-20T03:03:34.132Z,82.05
2018-02-20T03:06:01.847Z,81.35
2018-02-20T03:08:29.491Z,81.36
2018-02-20T03:10:57.232Z,81.79
2018-02-20T03:13:25.852Z,81.94
2018-02-20T03:15:53.556Z,81.44
2018-02-20T03:18:21.295Z,81.35
2018-02-20T03:20:49.151Z,81.60
2018-02-20T03:23:16.869Z,81.79
2018-02-20T03:25:45.395Z,81.52
2018-02-20T03:28:13.712Z,81.09
2018-02-20T03:30:41.332Z,81.31
2018-02-20T03:33:10.267Z,81.50
2018-02-20T03:35:37.995Z,81.74
2018-02-20T03:38:06.471Z,82.33
2018-02-20T03:40:34.154Z,82.64
2018-02-20T03:43:01.883Z,82.75
2018-02-20T03:45:29.587Z,82.78
2018-02-20T03:47:57.323Z,82.39
2018-02-20T03:50:25.335Z,82.05
2018-02-20T03:52:53.227Z,82.59
2018-02-20T03:55:21.690Z,82.95
2018-02-20T03:57:49.446Z,82.87
2018-02-20T04:00:17.300Z,82.16
2018-02-20T04:02:45.574Z,82.18
2018-02-20T04:05:13.247Z,82.21
2018-02-20T04:07:41.323Z,82.41
2018-02-20T04:10:09.036Z,82.51
2018-02-20T04:12:37.796Z,82.56
2018-02-20T04:15:05.485Z,82.14
2018-02-20T04:17:33.212Z,81.71
2018-02-20T04:20:00.931Z,81.39
2018-02-20T04:22:28.643Z,81.04
2018-02-20T04:24:57.101Z,81.21
2018-02-20T04:27:24.848Z,81.76
2018-02-20T04:29:52.704Z,81.88
2018-02-20T04:32:20.418Z,81.92
2018-02-20T04:34:48.397Z,81.99
2018-02-20T04:37:16.506Z,82.20
2018-02-20T04:39:44.204Z,82.22
2018-02-20T04:42:12.708Z,81.94
2018-02-20T04:44:41.143Z,81.28
2018-02-20T04:47:08.864Z,81.48
2018-02-20T04:49:36.547Z,82.02
2018-02-20T04:52:04.273Z,82.44
2018-02-20T04:54:32.012Z,82.42
2018-02-20T04:56:59.883Z,82.30
2018-02-20T04:59:27.608Z,82.13
2018-02-20T05:01:55.322Z,81.96
2018-02-20T05:04:23.006Z,81.72
2018-02-20T05:06:50.844Z,81.64
2018-02-20T05:09:18.868Z,81.42
2018-02-20T05:11:47.163Z,81.16
2018-02-20T05:14:14.853Z,80.60
2018-02-20T05:16:43.467Z,80.73
2018-02-20T05:19:11.152Z,81.38
2018-02-20T05:21:38.905Z,81.66
2018-02-20T05:24:06.887Z,82.15
2018-02-20T05:26:34.617Z,82.96
2018-02-20T05:29:02.360Z,83.81
2018-02-20T05:31:30.092Z,84.30
2018-02-20T05:33:58.103Z,84.52
2018-02-20T05:36:25.889Z,84.81
2018-02-20T05:38:53.827Z,84.88
2018-02-20T05:41:22.455Z,84.81
2018-02-20T05:43:50.159Z,84.58
2018-02-20T05:46:17.929Z,91.40
2018-02-20T05:48:45.667Z,96.27
2018-02-20T05:51:13.427Z,97.89
2018-02-20T05:53:42.084Z,96.41
2018-02-20T05:56:09.732Z,87.58
2018-02-20T05:58:37.368Z,81.05
2018-02-20T06:01:05.001Z,79.35
2018-02-20T06:03:32.647Z,79.45
2018-02-20T06:06:00.322Z,79.85
2018-02-20T06:08:28.766Z,80.52
2018-02-20T06:10:57.292Z,81.49
2018-02-20T06:13:26.417Z,82.20
2018-02-20T06:15:54.494Z,82.32
2018-02-20T06:18:22.212Z,83.11
2018-02-20T06:20:50.609Z,83.79
2018-02-20T06:23:19.058Z,84.00
2018-02-20T06:25:46.831Z,84.54
2018-02-20T06:28:15.428Z,85.22
2018-02-20T06:30:43.919Z,85.55
2018-02-20T06:33:11.652Z,85.60
2018-02-20T06:35:39.428Z,85.67
2018-02-20T06:38:07.432Z,86.07
2018-02-20T06:40:35.152Z,86.40
2018-02-20T06:43:02.841Z,86.46
2018-02-20T06:45:30.627Z,86.08
2018-02-20T06:47:58.892Z,85.46
2018-02-20T06:50:27.207Z,85.36
2018-02-20T07:05:57.898Z,86.27
2018-02-20T07:08:25.727Z,86.01
2018-02-20T07:10:53.446Z,86.21
2018-02-20T07:13:21.181Z,86.66
2018-02-20T07:15:48.898Z,87.82
2018-02-20T07:18:16.586Z,88.62
2018-02-20T07:20:44.385Z,88.75
2018-02-20T07:23:12.131Z,88.55
2018-02-20T07:25:39.822Z,88.35
2018-02-20T07:28:07.536Z,87.72
2018-02-20T07:30:35.473Z,87.55
2018-02-20T07:33:03.186Z,87.32
2018-02-20T07:35:31.046Z,87.04
2018-02-20T07:37:58.850Z,86.69
2018-02-20T07:40:26.768Z,86.83
2018-02-20T07:42:54.697Z,86.70
2018-02-20T07:45:22.764Z,86.74
2018-02-20T07:47:50.565Z,86.89
2018-02-20T07:50:18.300Z,87.16
2018-02-20T07:52:46.045Z,87.00
2018-02-20T07:55:13.758Z,86.67
2018-02-20T07:57:41.593Z,86.65
2018-02-20T08:00:09.321Z,86.89
2018-02-20T08:02:37.019Z,87.08
2018-02-20T08:05:04.824Z,86.91
2018-02-20T08:07:32.505Z,86.67
2018-02-20T08:10:00.317Z,86.30
2018-02-20T08:12:28.000Z,85.97
2018-02-20T08:14:55.707Z,85.99
2018-02-20T08:17:23.396Z,86.26
2018-02-20T08:19:51.093Z,86.35
2018-02-20T08:22:18.773Z,86.10
2018-02-20T08:24:46.491Z,86.07
2018-02-20T08:27:14.163Z,86.40
2018-02-20T08:29:41.903Z,87.22
2018-02-20T08:32:09.638Z,88.09
2018-02-20T08:34:37.336Z,88.97
2018-02-20T08:37:05.066Z,89.17
2018-02-20T08:39:32.779Z,89.50
2018-02-20T08:42:00.461Z,90.04
2018-02-20T08:44:28.189Z,90.25
2018-02-20T08:46:55.866Z,90.39
2018-02-20T08:49:23.722Z,90.55
2018-02-20T08:51:51.506Z,90.45
2018-02-20T08:54:19.198Z,90.36
2018-02-20T08:56:46.912Z,90.53
2018-02-20T08:59:14.590Z,90.37
2018-02-20T09:01:42.300Z,90.25
2018-02-20T09:04:09.969Z,90.00
2018-02-20T09:06:37.692Z,89.89
2018-02-20T09:09:05.377Z,89.12
2018-02-20T09:11:33.087Z,88.74
2018-02-20T09:14:00.782Z,88.99
2018-02-20T09:16:28.515Z,87.58
2018-02-20T09:18:56.276Z,87.35
2018-02-20T09:21:24.048Z,85.43
2018-02-20T09:23:51.929Z,85.47
2018-02-20T09:26:19.655Z,85.22
2018-02-20T09:28:47.379Z,84.35
2018-02-20T09:31:15.121Z,84.36
2018-02-20T09:33:42.820Z,82.61
2018-02-20T09:36:10.554Z,81.48
2018-02-20T09:38:38.314Z,80.72
2018-02-20T09:41:07.847Z,80.35
2018-02-20T09:43:35.536Z,79.87
2018-02-20T09:46:03.550Z,78.78
2018-02-20T09:48:31.136Z,79.44
2018-02-20T09:50:58.972Z,78.13
2018-02-20T09:53:26.680Z,78.50
2018-02-20T09:55:54.426Z,78.71
2018-02-20T09:58:22.103Z,77.75
2018-02-20T10:00:49.821Z,76.07
2018-02-20T10:03:17.620Z,75.99
2018-02-20T10:05:45.381Z,75.70
2018-02-20T10:08:13.026Z,74.64
2018-02-20T10:10:40.658Z,73.89
2018-02-20T10:13:08.318Z,74.19
2018-02-20T10:15:35.950Z,73.67
2018-02-20T10:18:03.625Z,73.11
2018-02-20T10:20:31.290Z,72.43
2018-02-20T10:22:58.886Z,72.25
2018-02-20T10:25:26.486Z,71.87
2018-02-20T10:27:54.250Z,71.70
2018-02-20T10:30:21.838Z,71.09
2018-02-20T10:32:49.485Z,70.71
2018-02-20T10:35:17.091Z,69.38
2018-02-20T10:37:44.719Z,69.66
2018-02-20T10:40:12.314Z,68.81
2018-02-20T10:42:39.988Z,67.83
2018-02-20T10:45:07.650Z,66.94
2018-02-20T10:47:35.277Z,65.97
2018-02-20T10:50:02.881Z,64.76
2018-02-20T11:08:12.096Z,63.11
2018-02-20T11:10:39.726Z,63.00
2018-02-20T11:13:07.323Z,62.17
2018-02-20T11:15:34.944Z,60.63
2018-02-20T11:18:02.562Z,60.41
2018-02-20T11:20:30.231Z,60.28
2018-02-20T11:22:57.832Z,59.58
2018-02-20T11:25:25.466Z,59.10
2018-02-20T11:27:53.062Z,59.67
2018-02-20T11:30:20.705Z,58.96
2018-02-20T11:32:48.300Z,59.06
2018-02-20T11:35:15.929Z,58.29
2018-02-20T11:37:43.530Z,58.12
2018-02-20T11:40:11.153Z,59.63
2018-02-20T11:42:38.763Z,57.68
2018-02-20T11:45:06.379Z,56.07
2018-02-20T11:47:33.987Z,56.79
2018-02-20T11:50:01.607Z,56.29
2018-02-20T11:52:29.199Z,56.83
2018-02-20T11:54:56.830Z,56.94
2018-02-20T11:57:24.422Z,57.83
2018-02-20T11:59:52.050Z,58.73
2018-02-20T12:02:19.662Z,57.47
2018-02-20T12:04:47.315Z,57.35
2018-02-20T12:07:14.907Z,58.32
2018-02-20T12:09:42.531Z,57.77
2018-02-20T12:12:10.115Z,57.03
2018-02-20T12:14:37.731Z,57.70
2018-02-20T12:17:05.330Z,58.57
2018-02-20T12:19:33.183Z,58.75
2018-02-20T12:22:00.789Z,59.08
2018-02-20T12:24:28.626Z,59.04
2018-02-20T12:26:56.225Z,59.62
2018-02-20T12:29:23.862Z,59.84
2018-02-20T12:31:51.591Z,59.24
2018-02-20T12:34:19.215Z,59.21
2018-02-20T12:36:47.009Z,59.42
2018-02-20T12:39:14.635Z,59.43
2018-02-20T12:41:42.247Z,59.58
2018-02-20T12:44:09.854Z,59.33
2018-02-20T12:46:37.455Z,59.68
2018-02-20T12:49:05.123Z,59.12
2018-02-20T12:51:32.706Z,59.61
2018-02-20T12:54:00.358Z,59.11
2018-02-20T12:56:27.951Z,59.12
2018-02-20T12:58:55.569Z,59.34
2018-02-20T13:01:23.418Z,58.37
2018-02-20T13:03:51.047Z,59.08
2018-02-20T13:06:18.679Z,59.72
2018-02-20T13:08:46.346Z,58.58
2018-02-20T13:11:13.979Z,58.75
2018-02-20T13:13:41.609Z,58.42
2018-02-20T13:16:09.211Z,58.80
2018-02-20T13:18:36.846Z,58.62
2018-02-20T13:21:04.438Z,58.45
2018-02-20T13:23:32.082Z,57.73
2018-02-20T13:25:59.671Z,57.38
2018-02-20T13:28:27.447Z,57.70
2018-02-20T13:30:57.015Z,56.95
2018-02-20T13:33:24.646Z,56.77
2018-02-20T13:35:52.243Z,56.70
2018-02-20T13:38:19.862Z,55.34
2018-02-20T13:40:47.467Z,53.49
2018-02-20T13:43:15.098Z,52.52
2018-02-20T13:45:42.742Z,51.46
2018-02-20T13:48:10.350Z,49.27
2018-02-20T13:50:37.943Z,49.58
2018-02-20T13:53:05.582Z,48.33
2018-02-20T13:55:33.312Z,49.21
2018-02-20T13:58:00.954Z,49.84
2018-02-20T14:00:28.596Z,49.77
2018-02-20T14:02:56.275Z,50.37
2018-02-20T14:05:23.935Z,49.40
2018-02-20T14:07:51.534Z,49.18
2018-02-20T14:10:19.142Z,49.89
2018-02-20T14:12:46.762Z,50.03
2018-02-20T14:15:14.371Z,50.08
2018-02-20T14:17:42.005Z,48.94
2018-02-20T14:20:09.602Z,49.02
2018-02-20T14:22:37.282Z,48.95
2018-02-20T14:25:05.075Z,49.08
2018-02-20T14:27:32.690Z,49.53
2018-02-20T14:30:00.291Z,50.61
2018-02-20T14:32:28.025Z,52.24
2018-02-20T14:34:55.631Z,53.84
2018-02-20T14:37:23.346Z,54.29
2018-02-20T14:39:50.986Z,54.99
2018-02-20T14:42:18.608Z,55.27
2018-02-20T14:44:46.214Z,55.99
2018-02-20T14:47:13.844Z,55.12
2018-02-20T14:49:41.442Z,54.72
2018-02-20T14:52:09.328Z,54.30
2018-02-20T14:54:36.931Z,53.81
2018-02-20T14:57:04.817Z,53.72
2018-02-20T14:59:32.411Z,53.72
2018-02-20T15:02:00.062Z,52.60
2018-02-20T15:04:27.682Z,53.69
2018-02-20T15:06:55.337Z,53.50
2018-02-20T15:09:23.190Z,53.15
2018-02-20T15:11:50.835Z,53.69
2018-02-20T15:14:18.494Z,53.73
2018-02-20T15:16:46.111Z,53.48
2018-02-20T15:19:13.734Z,52.67
2018-02-20T15:21:41.390Z,51.60
2018-02-20T15:24:08.991Z,51.91
2018-02-20T15:26:36.626Z,51.87
2018-02-20T15:29:04.242Z,50.24
2018-02-20T15:31:31.884Z,49.60
2018-02-20T15:33:59.470Z,50.22
2018-02-20T15:36:27.131Z,50.15
2018-02-20T15:38:54.738Z,50.10
2018-02-20T15:41:22.379Z,48.11
2018-02-20T15:43:49.988Z,47.64
2018-02-20T15:46:17.608Z,48.17
2018-02-20T15:48:45.327Z,48.08
2018-02-20T15:51:12.967Z,48.46
2018-02-20T15:53:40.570Z,49.12
2018-02-20T15:56:08.191Z,50.04
2018-02-20T15:58:35.778Z,50.40
2018-02-20T16:01:03.423Z,51.13
2018-02-20T16:03:31.047Z,50.71
2018-02-20T16:05:58.767Z,50.00
2018-02-20T16:08:26.373Z,50.37
2018-02-20T16:10:54.019Z,50.41
2018-02-20T16:13:21.774Z,50.58
2018-02-20T16:15:53.044Z,51.41
2018-02-20T16:18:20.647Z,52.05
2018-02-20T16:20:48.306Z,52.32
2018-02-20T16:23:15.902Z,52.36
2018-02-20T16:25:43.550Z,52.68
2018-02-20T16:28:11.143Z,53.46
2018-02-20T16:30:38.799Z,54.01
2018-02-20T16:33:06.518Z,54.85
2018-02-20T16:35:34.142Z,55.57
2018-02-20T16:38:01.770Z,56.02
2018-02-20T16:40:29.378Z,56.68
2018-02-20T16:42:57.151Z,57.12
2018-02-20T16:45:24.827Z,57.78
2018-02-20T16:47:52.453Z,58.77
2018-02-20T16:50:20.063Z,59.29
2018-02-20T16:52:47.859Z,59.97
2018-02-20T16:55:15.483Z,60.70
2018-02-20T16:57:43.118Z,61.00
2018-02-20T17:00:10.734Z,61.29
2018-02-20T17:02:38.420Z,61.63
2018-02-20T17:05:06.002Z,61.92
2018-02-20T17:07:33.631Z,62.05
2018-02-20T17:10:01.228Z,62.10
2018-02-20T17:12:28.993Z,62.54
2018-02-20T17:14:56.679Z,62.73
2018-02-20T17:17:24.317Z,63.12
2018-02-20T17:19:52.168Z,63.08
2018-02-20T17:22:19.807Z,62.74
2018-02-20T17:24:47.439Z,62.98
2018-02-20T17:27:15.082Z,63.03
2018-02-20T17:29:42.695Z,62.94
2018-02-20T17:32:10.315Z,63.17
2018-02-20T17:34:38.026Z,63.46
2018-02-20T17:37:05.660Z,63.63
2018-02-20T17:39:33.261Z,63.57
2018-02-20T17:42:00.912Z,63.65
2018-02-20T17:44:28.508Z,63.79
2018-02-20T17:46:56.147Z,63.74
2018-02-20T17:49:23.743Z,63.75
2018-02-20T17:51:51.403Z,63.99
2018-02-20T17:54:19.012Z,64.13
2018-02-20T17:56:46.838Z,64.24
2018-02-20T17:59:14.459Z,64.51
2018-02-20T18:01:42.102Z,64.70
2018-02-20T18:04:09.709Z,64.67
2018-02-20T18:06:37.347Z,64.38
2018-02-20T18:09:05.835Z,64.26
2018-02-20T18:11:33.495Z,64.24
2018-02-20T18:14:01.139Z,64.14
2018-02-20T18:16:28.836Z,64.27
2018-02-20T18:18:56.509Z,64.22
2018-02-20T18:21:24.138Z,64.45
2018-02-20T18:23:51.728Z,64.33
2018-02-20T18:26:19.370Z,64.64
2018-02-20T18:28:47.172Z,64.73
2018-02-20T18:31:14.791Z,64.78
2018-02-20T18:33:42.384Z,64.96
2018-02-20T18:36:10.055Z,65.02
2018-02-20T18:38:37.655Z,65.04
2018-02-20T18:41:05.460Z,65.26
2018-02-20T18:43:33.062Z,64.66
2018-02-20T18:46:00.702Z,64.74
2018-02-20T18:48:28.311Z,64.83
2018-02-20T18:50:55.980Z,64.72
2018-02-20T18:53:23.602Z,64.65
2018-02-20T18:55:51.231Z,64.69
2018-02-20T18:58:18.945Z,64.89
2018-02-20T19:00:46.601Z,65.07
2018-02-20T19:03:14.215Z,65.31
2018-02-20T19:05:41.861Z,65.21
2018-02-20T19:08:09.467Z,65.18
2018-02-20T19:10:37.251Z,64.96
2018-02-20T19:13:04.854Z,65.28
2018-02-20T19:15:32.467Z,65.66
2018-02-20T19:18:00.086Z,65.82
2018-02-20T19:20:27.733Z,65.79
2018-02-20T19:22:55.337Z,65.56
2018-02-20T19:25:23.140Z,65.76
2018-02-20T19:27:50.735Z,66.01
2018-02-20T19:30:18.367Z,66.14
2018-02-20T19:32:45.963Z,66.20
2018-02-20T19:35:13.603Z,65.90
2018-02-20T19:37:41.202Z,66.00
2018-02-20T19:40:08.845Z,66.13
2018-02-20T19:42:36.456Z,65.73
2018-02-20T19:45:04.116Z,66.28
2018-02-20T19:47:31.737Z,66.45
2018-02-20T19:49:59.396Z,66.58
2018-02-20T19:52:27.017Z,66.77
2018-02-20T19:54:54.687Z,66.76
2018-02-20T19:57:22.423Z,66.85
2018-02-20T19:59:50.075Z,66.86
2018-02-20T20:02:17.712Z,67.72
2018-02-20T20:04:45.439Z,68.49
2018-02-20T20:07:13.094Z,68.64
2018-02-20T20:09:40.783Z,68.74
2018-02-20T20:12:08.418Z,68.56
2018-02-20T20:14:36.043Z,68.27
2018-02-20T20:17:03.671Z,68.18
2018-02-20T20:19:31.290Z,68.08
2018-02-20T20:21:58.936Z,67.79
2018-02-20T20:24:26.591Z,67.92
2018-02-20T20:26:54.233Z,67.64
2018-02-20T20:29:21.851Z,67.58
2018-02-20T20:31:49.483Z,67.62
2018-02-20T20:34:17.108Z,67.73
2018-02-20T20:36:44.746Z,67.44
2018-02-20T20:39:12.346Z,67.35
2018-02-20T20:41:40.019Z,67.43
2018-02-20T20:44:07.647Z,67.59
2018-02-20T20:46:35.305Z,67.63
2018-02-20T20:49:02.962Z,67.82
2018-02-20T20:51:30.599Z,67.80
2018-02-20T20:53:58.196Z,67.83
2018-02-20T20:56:25.826Z,67.80
2018-02-20T20:58:53.447Z,67.72
2018-02-20T21:01:21.091Z,67.66
2018-02-20T21:03:48.682Z,67.68
2018-02-20T21:06:16.322Z,68.00
2018-02-20T21:08:43.926Z,68.28
2018-02-20T21:11:11.578Z,68.27
2018-02-20T21:13:39.176Z,68.13
2018-02-20T21:16:06.838Z,67.94
2018-02-20T21:18:34.531Z,68.04
2018-02-20T21:21:02.198Z,68.21
2018-02-20T21:23:29.794Z,68.32
2018-02-20T21:25:57.442Z,67.99
2018-02-20T21:28:25.087Z,67.92
2018-02-20T21:30:52.706Z,68.04
2018-02-20T21:33:20.297Z,68.14
2018-02-20T21:35:47.926Z,68.21
2018-02-20T21:38:15.514Z,68.23
2018-02-20T21:40:43.155Z,68.19
2018-02-20T21:43:10.972Z,68.17
2018-02-20T21:45:38.613Z,68.29
2018-02-20T21:48:06.200Z,68.34
2018-02-20T21:50:33.882Z,68.15
2018-02-20T21:53:01.513Z,68.69
2018-02-20T21:55:29.299Z,68.75
2018-02-20T21:57:57.670Z,69.17
2018-02-20T22:00:25.292Z,69.29
2018-02-20T22:02:52.882Z,69.25
2018-02-20T22:05:20.575Z,69.26
2018-02-20T22:07:48.209Z,69.55
2018-02-20T22:10:15.840Z,69.47
2018-02-20T22:12:43.452Z,69.64
2018-02-20T22:15:11.267Z,69.68
2018-02-20T22:17:38.867Z,69.64
2018-02-20T22:20:06.549Z,69.67
2018-02-20T22:22:34.153Z,69.73
2018-02-20T22:25:01.906Z,69.88
2018-02-20T22:27:29.551Z,69.93
2018-02-20T22:29:57.179Z,70.13
2018-02-20T22:32:24.943Z,70.17
2018-02-20T22:34:52.697Z,70.28
2018-02-20T22:37:20.315Z,70.07
2018-02-20T22:39:47.935Z,70.00
2018-02-20T22:42:15.532Z,70.04
2018-02-20T22:44:43.302Z,70.07
2018-02-20T22:47:10.892Z,70.17
2018-02-20T22:49:38.511Z,70.18
2018-02-20T22:52:06.102Z,70.00
2018-02-20T22:54:33.750Z,70.21
2018-02-20T22:57:01.347Z,70.45
2018-02-20T22:59:28.947Z,70.27
2018-02-20T23:01:56.578Z,70.17
2018-02-20T23:04:24.197Z,70.11
2018-02-20T23:06:51.807Z,70.07
2018-02-20T23:09:19.402Z,69.98
2018-02-20T23:11:47.747Z,70.05
2018-02-20T23:14:15.412Z,70.24
2018-02-20T23:16:43.034Z,70.33
2018-02-20T23:19:10.663Z,70.44
2018-02-20T23:21:38.287Z,70.46
2018-02-20T23:24:05.887Z,70.42
2018-02-20T23:26:33.646Z,70.51
2018-02-20T23:29:01.268Z,70.56
2018-02-20T23:31:28.899Z,70.68
2018-02-20T23:33:56.544Z,70.75
2018-02-20T23:36:24.162Z,70.86
2018-02-20T23:38:51.779Z,70.99
2018-02-20T23:41:19.393Z,70.79
2018-02-20T23:43:46.985Z,70.54
2018-02-20T23:46:14.862Z,70.71
2018-02-20T23:48:42.445Z,70.67
2018-02-20T23:51:15.662Z,70.55
2018-02-20T23:53:43.252Z,70.61
2018-02-20T23:56:10.862Z,70.76
2018-02-20T23:58:38.549Z,71.02
